sensor_id;sensor_type;location;lat;lon;timestamp;pressure;altitude;pressure_sealevel;temperature;humidity
72024;BME280;59889;50.700;5.440;2023-05-20T00:02:03;100648.38;;;23.83;32.89
72024;BME280;59889;50.700;5.440;2023-05-20T00:04:28;100647.35;;;23.77;32.70
72024;BME280;59889;50.700;5.440;2023-05-20T00:06:53;100645.01;;;23.67;32.80
72024;BME280;59889;50.700;5.440;2023-05-20T00:09:18;100645.34;;;24.05;32.60
72024;BME280;59889;50.700;5.440;2023-05-20T00:11:44;100643.30;;;24.16;32.78
72024;BME280;59889;50.700;5.440;2023-05-20T00:14:09;100643.32;;;24.00;32.69
72024;BME280;59889;50.700;5.440;2023-05-20T00:16:33;100643.25;;;23.96;32.70
72024;BME280;59889;50.700;5.440;2023-05-20T00:18:58;100647.49;;;24.26;32.64
72024;BME280;59889;50.700;5.440;2023-05-20T00:21:23;100648.66;;;24.26;32.65
72024;BME280;59889;50.700;5.440;2023-05-20T00:23:49;100652.46;;;23.96;32.77
72024;BME280;59889;50.700;5.440;2023-05-20T00:26:13;100653.90;;;23.87;32.58
72024;BME280;59889;50.700;5.440;2023-05-20T00:28:38;100654.75;;;24.10;32.56
72024;BME280;59889;50.700;5.440;2023-05-20T00:31:05;100652.88;;;24.27;32.64
72024;BME280;59889;50.700;5.440;2023-05-20T00:33:28;100654.57;;;24.28;32.63
72024;BME280;59889;50.700;5.440;2023-05-20T00:35:53;100655.58;;;24.23;32.67
72024;BME280;59889;50.700;5.440;2023-05-20T00:38:18;100652.22;;;24.01;32.65
72024;BME280;59889;50.700;5.440;2023-05-20T00:40:44;100649.47;;;24.07;32.59
72024;BME280;59889;50.700;5.440;2023-05-20T00:43:09;100648.01;;;24.03;32.62
72024;BME280;59889;50.700;5.440;2023-05-20T00:45:33;100648.58;;;24.14;32.78
72024;BME280;59889;50.700;5.440;2023-05-20T00:47:58;100644.83;;;24.30;32.58
72024;BME280;59889;50.700;5.440;2023-05-20T00:50:24;100643.17;;;24.27;32.62
72024;BME280;59889;50.700;5.440;2023-05-20T00:52:48;100641.88;;;23.91;32.76
72024;BME280;59889;50.700;5.440;2023-05-20T00:55:14;100645.74;;;23.78;33.19
72024;BME280;59889;50.700;5.440;2023-05-20T00:57:39;100640.27;;;23.78;32.95
72024;BME280;59889;50.700;5.440;2023-05-20T01:00:06;100642.38;;;23.63;33.13
72024;BME280;59889;50.700;5.440;2023-05-20T01:02:29;100643.05;;;23.72;33.05
72024;BME280;59889;50.700;5.440;2023-05-20T01:04:53;100642.97;;;23.85;33.20
72024;BME280;59889;50.700;5.440;2023-05-20T01:07:19;100641.99;;;23.66;33.14
72024;BME280;59889;50.700;5.440;2023-05-20T01:09:44;100641.89;;;23.81;33.23
72024;BME280;59889;50.700;5.440;2023-05-20T01:12:12;100638.81;;;23.81;32.95
72024;BME280;59889;50.700;5.440;2023-05-20T01:14:36;100643.16;;;23.91;33.15
72024;BME280;59889;50.700;5.440;2023-05-20T01:17:01;100639.26;;;24.05;32.99
72024;BME280;59889;50.700;5.440;2023-05-20T01:19:30;100643.00;;;23.60;33.21
72024;BME280;59889;50.700;5.440;2023-05-20T01:21:50;100643.03;;;23.73;33.08
72024;BME280;59889;50.700;5.440;2023-05-20T01:24:14;100641.12;;;23.56;33.27
72024;BME280;59889;50.700;5.440;2023-05-20T01:26:39;100639.07;;;23.37;33.22
72024;BME280;59889;50.700;5.440;2023-05-20T01:29:05;100636.35;;;23.55;33.27
72024;BME280;59889;50.700;5.440;2023-05-20T01:31:31;100635.63;;;23.39;33.48
72024;BME280;59889;50.700;5.440;2023-05-20T01:33:55;100631.89;;;23.60;33.25
72024;BME280;59889;50.700;5.440;2023-05-20T01:36:20;100631.31;;;23.15;33.50
72024;BME280;59889;50.700;5.440;2023-05-20T01:38:44;100626.31;;;24.07;32.96
72024;BME280;59889;50.700;5.440;2023-05-20T01:41:09;100621.38;;;23.57;33.02
72024;BME280;59889;50.700;5.440;2023-05-20T01:43:34;100618.54;;;24.02;33.02
72024;BME280;59889;50.700;5.440;2023-05-20T01:45:59;100617.40;;;23.63;33.21
72024;BME280;59889;50.700;5.440;2023-05-20T01:48:24;100619.62;;;23.57;33.01
72024;BME280;59889;50.700;5.440;2023-05-20T01:50:49;100622.61;;;23.73;33.10
72024;BME280;59889;50.700;5.440;2023-05-20T01:53:14;100622.69;;;23.96;33.12
72024;BME280;59889;50.700;5.440;2023-05-20T01:55:39;100624.48;;;23.50;33.33
72024;BME280;59889;50.700;5.440;2023-05-20T01:58:05;100621.27;;;23.99;32.76
72024;BME280;59889;50.700;5.440;2023-05-20T02:00:30;100615.00;;;23.87;33.18
72024;BME280;59889;50.700;5.440;2023-05-20T02:02:54;100612.70;;;23.98;33.10
72024;BME280;59889;50.700;5.440;2023-05-20T02:05:19;100614.41;;;23.94;33.13
72024;BME280;59889;50.700;5.440;2023-05-20T02:07:44;100613.00;;;24.00;33.02
72024;BME280;59889;50.700;5.440;2023-05-20T02:10:09;100613.72;;;23.60;32.95
72024;BME280;59889;50.700;5.440;2023-05-20T02:12:34;100614.36;;;23.72;33.05
72024;BME280;59889;50.700;5.440;2023-05-20T02:14:59;100613.11;;;23.47;33.08
72024;BME280;59889;50.700;5.440;2023-05-20T02:17:24;100610.98;;;23.48;33.06
72024;BME280;59889;50.700;5.440;2023-05-20T02:19:49;100609.62;;;24.00;33.02
72024;BME280;59889;50.700;5.440;2023-05-20T02:22:14;100606.73;;;24.26;32.74
72024;BME280;59889;50.700;5.440;2023-05-20T02:24:39;100608.56;;;23.37;33.19
72024;BME280;59889;50.700;5.440;2023-05-20T02:27:05;100610.68;;;24.18;32.79
72024;BME280;59889;50.700;5.440;2023-05-20T02:29:29;100609.31;;;24.15;32.87
72024;BME280;59889;50.700;5.440;2023-05-20T02:31:54;100608.72;;;23.78;33.02
72024;BME280;59889;50.700;5.440;2023-05-20T02:34:19;100608.43;;;23.79;32.97
72024;BME280;59889;50.700;5.440;2023-05-20T02:36:44;100609.23;;;23.98;33.03
72024;BME280;59889;50.700;5.440;2023-05-20T02:39:09;100609.38;;;23.69;33.12
72024;BME280;59889;50.700;5.440;2023-05-20T02:41:34;100608.95;;;23.61;33.20
72024;BME280;59889;50.700;5.440;2023-05-20T02:43:59;100612.15;;;24.22;32.80
72024;BME280;59889;50.700;5.440;2023-05-20T02:46:24;100610.65;;;24.16;32.85
72024;BME280;59889;50.700;5.440;2023-05-20T02:48:49;100609.38;;;23.77;33.02
72024;BME280;59889;50.700;5.440;2023-05-20T02:51:14;100610.18;;;23.99;32.76
72024;BME280;59889;50.700;5.440;2023-05-20T02:53:39;100606.74;;;23.88;32.94
72024;BME280;59889;50.700;5.440;2023-05-20T02:56:05;100601.10;;;23.78;32.99
72024;BME280;59889;50.700;5.440;2023-05-20T02:58:29;100600.19;;;24.17;32.82
72024;BME280;59889;50.700;5.440;2023-05-20T03:00:54;100600.01;;;23.46;33.09
72024;BME280;59889;50.700;5.440;2023-05-20T03:03:19;100599.69;;;24.24;32.76
72024;BME280;59889;50.700;5.440;2023-05-20T03:05:44;100601.18;;;23.85;32.89
72024;BME280;59889;50.700;5.440;2023-05-20T03:08:09;100602.00;;;24.04;32.99
72024;BME280;59889;50.700;5.440;2023-05-20T03:10:34;100602.21;;;23.76;33.01
72024;BME280;59889;50.700;5.440;2023-05-20T03:12:59;100603.59;;;24.16;32.82
72024;BME280;59889;50.700;5.440;2023-05-20T03:15:24;100597.94;;;23.63;33.16
72024;BME280;59889;50.700;5.440;2023-05-20T03:17:49;100595.05;;;23.61;33.15
72024;BME280;59889;50.700;5.440;2023-05-20T03:20:14;100596.43;;;23.53;33.25
72024;BME280;59889;50.700;5.440;2023-05-20T03:22:39;100596.63;;;23.86;33.16
72024;BME280;59889;50.700;5.440;2023-05-20T03:25:05;100599.04;;;23.98;33.03
72024;BME280;59889;50.700;5.440;2023-05-20T03:27:29;100596.41;;;24.05;32.92
72024;BME280;59889;50.700;5.440;2023-05-20T03:29:54;100593.31;;;23.92;33.10
72024;BME280;59889;50.700;5.440;2023-05-20T03:32:20;100591.13;;;23.67;32.82
72024;BME280;59889;50.700;5.440;2023-05-20T03:34:44;100595.00;;;23.75;32.99
72024;BME280;59889;50.700;5.440;2023-05-20T03:37:09;100599.20;;;23.83;32.96
72024;BME280;59889;50.700;5.440;2023-05-20T03:39:34;100597.88;;;23.89;33.13
72024;BME280;59889;50.700;5.440;2023-05-20T03:41:59;100597.97;;;23.58;33.20
72024;BME280;59889;50.700;5.440;2023-05-20T03:44:24;100599.27;;;23.69;32.83
72024;BME280;59889;50.700;5.440;2023-05-20T03:46:50;100596.48;;;23.92;32.79
72024;BME280;59889;50.700;5.440;2023-05-20T03:49:14;100597.55;;;24.03;32.92
72024;BME280;59889;50.700;5.440;2023-05-20T03:51:39;100595.09;;;23.57;32.95
72024;BME280;59889;50.700;5.440;2023-05-20T03:54:10;100596.55;;;23.68;33.08
72024;BME280;59889;50.700;5.440;2023-05-20T03:56:30;100593.99;;;23.86;32.87
72024;BME280;59889;50.700;5.440;2023-05-20T03:58:54;100595.58;;;23.52;32.98
72024;BME280;59889;50.700;5.440;2023-05-20T04:01:19;100588.83;;;23.62;32.86
72024;BME280;59889;50.700;5.440;2023-05-20T04:03:44;100591.06;;;23.79;32.95
72024;BME280;59889;50.700;5.440;2023-05-20T04:06:10;100591.94;;;23.34;32.94
72024;BME280;59889;50.700;5.440;2023-05-20T04:08:35;100598.80;;;23.83;32.90
72024;BME280;59889;50.700;5.440;2023-05-20T04:11:00;100597.45;;;24.13;32.81
72024;BME280;59889;50.700;5.440;2023-05-20T04:13:25;100595.46;;;23.79;32.96
72024;BME280;59889;50.700;5.440;2023-05-20T04:15:50;100595.16;;;23.85;32.88
72024;BME280;59889;50.700;5.440;2023-05-20T04:18:15;100595.29;;;23.83;33.15
72024;BME280;59889;50.700;5.440;2023-05-20T04:20:40;100599.60;;;24.09;32.90
72024;BME280;59889;50.700;5.440;2023-05-20T04:23:13;100597.17;;;23.48;32.99
72024;BME280;59889;50.700;5.440;2023-05-20T04:25:30;100598.74;;;23.98;32.72
72024;BME280;59889;50.700;5.440;2023-05-20T04:27:55;100597.55;;;23.83;32.90
72024;BME280;59889;50.700;5.440;2023-05-20T04:30:20;100599.15;;;23.65;32.85
72024;BME280;59889;50.700;5.440;2023-05-20T04:32:45;100602.35;;;23.83;32.89
72024;BME280;59889;50.700;5.440;2023-05-20T04:35:10;100602.53;;;24.09;32.88
72024;BME280;59889;50.700;5.440;2023-05-20T04:37:35;100607.19;;;23.82;32.91
72024;BME280;59889;50.700;5.440;2023-05-20T04:40:00;100601.52;;;23.80;32.92
72024;BME280;59889;50.700;5.440;2023-05-20T04:42:25;100599.87;;;23.89;32.76
72024;BME280;59889;50.700;5.440;2023-05-20T04:44:50;100597.55;;;24.11;32.82
72024;BME280;59889;50.700;5.440;2023-05-20T04:47:15;100598.77;;;23.57;33.19
72024;BME280;59889;50.700;5.440;2023-05-20T04:49:40;100599.20;;;24.01;32.95
72024;BME280;59889;50.700;5.440;2023-05-20T04:52:05;100595.67;;;23.87;32.82
72024;BME280;59889;50.700;5.440;2023-05-20T04:54:31;100593.88;;;23.89;32.79
72024;BME280;59889;50.700;5.440;2023-05-20T04:56:55;100591.19;;;23.76;33.46
72024;BME280;59889;50.700;5.440;2023-05-20T04:59:20;100591.75;;;23.33;33.83
72024;BME280;59889;50.700;5.440;2023-05-20T05:01:45;100590.40;;;23.77;33.39
72024;BME280;59889;50.700;5.440;2023-05-20T05:04:10;100588.20;;;23.69;33.29
72024;BME280;59889;50.700;5.440;2023-05-20T05:06:35;100588.36;;;23.62;33.25
72024;BME280;59889;50.700;5.440;2023-05-20T05:09:00;100584.39;;;23.58;32.80
72024;BME280;59889;50.700;5.440;2023-05-20T05:11:25;100587.85;;;23.60;32.93
72024;BME280;59889;50.700;5.440;2023-05-20T05:13:50;100588.81;;;23.51;32.96
72024;BME280;59889;50.700;5.440;2023-05-20T05:16:15;100590.22;;;22.93;32.87
72024;BME280;59889;50.700;5.440;2023-05-20T05:18:40;100589.45;;;23.23;32.98
72024;BME280;59889;50.700;5.440;2023-05-20T05:21:05;100587.11;;;23.27;32.85
72024;BME280;59889;50.700;5.440;2023-05-20T05:23:31;100586.69;;;23.16;32.80
72024;BME280;59889;50.700;5.440;2023-05-20T05:25:55;100580.15;;;23.32;32.53
72024;BME280;59889;50.700;5.440;2023-05-20T05:28:20;100581.25;;;23.20;32.61
72024;BME280;59889;50.700;5.440;2023-05-20T05:30:45;100578.11;;;23.31;32.43
72024;BME280;59889;50.700;5.440;2023-05-20T05:33:10;100576.05;;;23.55;31.98
72024;BME280;59889;50.700;5.440;2023-05-20T05:35:35;100578.12;;;23.40;31.84
72024;BME280;59889;50.700;5.440;2023-05-20T05:38:00;100578.59;;;23.36;31.80
72024;BME280;59889;50.700;5.440;2023-05-20T05:40:26;100581.10;;;23.46;31.94
72024;BME280;59889;50.700;5.440;2023-05-20T05:42:50;100578.64;;;23.61;31.77
72024;BME280;59889;50.700;5.440;2023-05-20T05:45:16;100577.25;;;23.55;31.82
72024;BME280;59889;50.700;5.440;2023-05-20T05:47:41;100574.88;;;23.31;32.15
72024;BME280;59889;50.700;5.440;2023-05-20T05:50:06;100572.36;;;23.21;32.46
72024;BME280;59889;50.700;5.440;2023-05-20T05:52:30;100569.76;;;23.55;31.92
72024;BME280;59889;50.700;5.440;2023-05-20T05:54:56;100570.40;;;23.18;32.41
72024;BME280;59889;50.700;5.440;2023-05-20T05:57:21;100569.15;;;23.37;31.83
72024;BME280;59889;50.700;5.440;2023-05-20T05:59:46;100567.92;;;23.51;31.90
72024;BME280;59889;50.700;5.440;2023-05-20T06:02:11;100566.82;;;23.50;31.95
72024;BME280;59889;50.700;5.440;2023-05-20T06:04:36;100563.46;;;23.26;32.00
72024;BME280;59889;50.700;5.440;2023-05-20T06:07:01;100560.84;;;23.42;31.79
72024;BME280;59889;50.700;5.440;2023-05-20T06:09:26;100560.46;;;23.39;31.75
72024;BME280;59889;50.700;5.440;2023-05-20T06:11:51;100561.89;;;23.29;31.84
72024;BME280;59889;50.700;5.440;2023-05-20T06:14:16;100559.72;;;23.45;31.80
72024;BME280;59889;50.700;5.440;2023-05-20T06:16:41;100554.98;;;23.60;31.87
72024;BME280;59889;50.700;5.440;2023-05-20T06:19:07;100554.45;;;23.02;31.99
72024;BME280;59889;50.700;5.440;2023-05-20T06:21:31;100551.99;;;23.41;31.84
72024;BME280;59889;50.700;5.440;2023-05-20T06:23:57;100551.00;;;23.30;31.96
72024;BME280;59889;50.700;5.440;2023-05-20T06:26:21;100548.88;;;23.38;31.86
72024;BME280;59889;50.700;5.440;2023-05-20T06:28:47;100548.15;;;23.62;31.82
72024;BME280;59889;50.700;5.440;2023-05-20T06:31:12;100543.76;;;23.61;31.78
72024;BME280;59889;50.700;5.440;2023-05-20T06:33:37;100544.92;;;23.29;31.94
72024;BME280;59889;50.700;5.440;2023-05-20T06:36:02;100542.66;;;23.65;31.78
72024;BME280;59889;50.700;5.440;2023-05-20T06:38:27;100536.17;;;23.65;31.74
72024;BME280;59889;50.700;5.440;2023-05-20T06:40:52;100537.95;;;23.46;31.64
72024;BME280;59889;50.700;5.440;2023-05-20T06:43:17;100533.90;;;23.47;31.71
72024;BME280;59889;50.700;5.440;2023-05-20T06:45:42;100530.32;;;23.07;31.98
72024;BME280;59889;50.700;5.440;2023-05-20T06:48:07;100523.54;;;23.26;31.64
72024;BME280;59889;50.700;5.440;2023-05-20T06:50:32;100526.26;;;23.64;31.01
72024;BME280;59889;50.700;5.440;2023-05-20T06:52:57;100521.21;;;23.55;30.99
72024;BME280;59889;50.700;5.440;2023-05-20T06:55:22;100520.35;;;23.41;30.92
72024;BME280;59889;50.700;5.440;2023-05-20T06:57:47;100521.48;;;23.62;30.79
72024;BME280;59889;50.700;5.440;2023-05-20T07:00:12;100518.11;;;23.18;30.77
72024;BME280;59889;50.700;5.440;2023-05-20T07:02:37;100519.46;;;23.51;30.16
72024;BME280;59889;50.700;5.440;2023-05-20T07:05:02;100519.62;;;23.46;30.19
72024;BME280;59889;50.700;5.440;2023-05-20T07:07:27;100515.87;;;23.43;30.82
72024;BME280;59889;50.700;5.440;2023-05-20T07:09:53;100513.98;;;23.72;30.81
72024;BME280;59889;50.700;5.440;2023-05-20T07:12:17;100517.34;;;23.58;31.08
72024;BME280;59889;50.700;5.440;2023-05-20T07:14:44;100513.26;;;23.52;31.03
72024;BME280;59889;50.700;5.440;2023-05-20T07:17:08;100513.67;;;23.27;30.62
72024;BME280;59889;50.700;5.440;2023-05-20T07:19:33;100513.03;;;23.51;30.84
72024;BME280;59889;50.700;5.440;2023-05-20T07:21:58;100508.38;;;23.70;30.91
72024;BME280;59889;50.700;5.440;2023-05-20T07:24:23;100505.42;;;23.73;30.91
72024;BME280;59889;50.700;5.440;2023-05-20T07:26:48;100509.63;;;23.66;30.72
72024;BME280;59889;50.700;5.440;2023-05-20T07:29:13;100506.64;;;23.72;30.84
72024;BME280;59889;50.700;5.440;2023-05-20T07:31:38;100502.80;;;23.94;30.44
72024;BME280;59889;50.700;5.440;2023-05-20T07:34:03;100502.59;;;23.70;30.43
72024;BME280;59889;50.700;5.440;2023-05-20T07:36:29;100503.67;;;23.68;30.49
72024;BME280;59889;50.700;5.440;2023-05-20T07:38:53;100500.98;;;24.04;30.18
72024;BME280;59889;50.700;5.440;2023-05-20T07:41:18;100497.12;;;23.81;30.31
72024;BME280;59889;50.700;5.440;2023-05-20T07:43:44;100495.81;;;23.69;30.49
72024;BME280;59889;50.700;5.440;2023-05-20T07:46:08;100492.70;;;23.80;30.39
72024;BME280;59889;50.700;5.440;2023-05-20T07:48:33;100496.99;;;23.64;30.42
72024;BME280;59889;50.700;5.440;2023-05-20T07:50:58;100491.76;;;23.29;28.71
72024;BME280;59889;50.700;5.440;2023-05-20T07:53:24;100485.48;;;23.48;28.47
72024;BME280;59889;50.700;5.440;2023-05-20T07:55:49;100490.50;;;23.66;28.61
72024;BME280;59889;50.700;5.440;2023-05-20T07:58:14;100482.03;;;23.76;28.83
72024;BME280;59889;50.700;5.440;2023-05-20T08:00:39;100486.48;;;23.82;28.98
72024;BME280;59889;50.700;5.440;2023-05-20T08:03:04;100486.34;;;23.74;29.32
72024;BME280;59889;50.700;5.440;2023-05-20T08:05:29;100486.83;;;23.89;29.17
72024;BME280;59889;50.700;5.440;2023-05-20T08:07:54;100480.72;;;23.58;29.48
72024;BME280;59889;50.700;5.440;2023-05-20T08:10:19;100475.25;;;23.88;29.50
72024;BME280;59889;50.700;5.440;2023-05-20T08:12:45;100474.45;;;23.92;29.01
72024;BME280;59889;50.700;5.440;2023-05-20T08:15:09;100475.31;;;24.21;29.00
72024;BME280;59889;50.700;5.440;2023-05-20T08:17:34;100478.35;;;24.16;28.61
72024;BME280;59889;50.700;5.440;2023-05-20T08:19:59;100473.73;;;24.44;28.69
72024;BME280;59889;50.700;5.440;2023-05-20T08:22:24;100471.50;;;24.17;28.77
72024;BME280;59889;50.700;5.440;2023-05-20T08:24:49;100470.91;;;24.48;28.73
72024;BME280;59889;50.700;5.440;2023-05-20T08:27:14;100471.09;;;24.21;28.91
72024;BME280;59889;50.700;5.440;2023-05-20T08:29:39;100470.97;;;23.97;29.00
72024;BME280;59889;50.700;5.440;2023-05-20T08:32:05;100470.11;;;23.85;29.03
72024;BME280;59889;50.700;5.440;2023-05-20T08:34:29;100470.90;;;23.82;28.91
72024;BME280;59889;50.700;5.440;2023-05-20T08:36:54;100470.89;;;24.00;28.81
72024;BME280;59889;50.700;5.440;2023-05-20T08:39:19;100472.87;;;24.21;29.09
72024;BME280;59889;50.700;5.440;2023-05-20T08:41:46;100469.73;;;23.71;29.20
72024;BME280;59889;50.700;5.440;2023-05-20T08:44:09;100472.29;;;23.96;28.95
72024;BME280;59889;50.700;5.440;2023-05-20T08:46:34;100470.97;;;24.09;29.30
72024;BME280;59889;50.700;5.440;2023-05-20T08:48:59;100463.64;;;24.25;29.07
72024;BME280;59889;50.700;5.440;2023-05-20T08:51:26;100466.32;;;24.41;28.99
72024;BME280;59889;50.700;5.440;2023-05-20T08:53:49;100469.52;;;24.36;29.27
72024;BME280;59889;50.700;5.440;2023-05-20T08:56:15;100463.19;;;24.10;29.67
72024;BME280;59889;50.700;5.440;2023-05-20T08:58:39;100465.05;;;24.13;29.19
72024;BME280;59889;50.700;5.440;2023-05-20T09:01:05;100462.78;;;23.94;29.26
72024;BME280;59889;50.700;5.440;2023-05-20T09:03:29;100460.60;;;23.66;29.55
72024;BME280;59889;50.700;5.440;2023-05-20T09:06:03;100466.25;;;24.01;29.46
72024;BME280;59889;50.700;5.440;2023-05-20T09:08:23;100464.16;;;24.26;29.23
72024;BME280;59889;50.700;5.440;2023-05-20T09:10:44;100467.26;;;24.31;29.23
72024;BME280;59889;50.700;5.440;2023-05-20T09:13:10;100466.02;;;24.06;29.61
72024;BME280;59889;50.700;5.440;2023-05-20T09:15:35;100465.91;;;24.30;29.39
72024;BME280;59889;50.700;5.440;2023-05-20T09:18:00;100463.44;;;24.41;29.62
72024;BME280;59889;50.700;5.440;2023-05-20T09:20:25;100462.67;;;23.98;29.64
72024;BME280;59889;50.700;5.440;2023-05-20T09:22:50;100453.63;;;24.35;29.42
72024;BME280;59889;50.700;5.440;2023-05-20T09:25:18;100448.81;;;24.11;29.38
72024;BME280;59889;50.700;5.440;2023-05-20T09:27:40;100449.88;;;24.07;29.39
72024;BME280;59889;50.700;5.440;2023-05-20T09:30:06;100449.70;;;24.20;29.39
72024;BME280;59889;50.700;5.440;2023-05-20T09:32:30;100444.46;;;24.23;29.30
72024;BME280;59889;50.700;5.440;2023-05-20T09:34:55;100444.38;;;24.20;29.41
72024;BME280;59889;50.700;5.440;2023-05-20T09:37:21;100441.11;;;24.08;29.53
72024;BME280;59889;50.700;5.440;2023-05-20T09:39:54;100439.54;;;23.96;29.44
72024;BME280;59889;50.700;5.440;2023-05-20T09:42:17;100438.06;;;23.89;29.52
72024;BME280;59889;50.700;5.440;2023-05-20T09:44:36;100432.73;;;23.94;29.40
72024;BME280;59889;50.700;5.440;2023-05-20T09:47:01;100437.43;;;24.00;29.25
72024;BME280;59889;50.700;5.440;2023-05-20T09:49:27;100437.45;;;24.10;29.10
72024;BME280;59889;50.700;5.440;2023-05-20T09:51:51;100438.35;;;23.91;29.05
72024;BME280;59889;50.700;5.440;2023-05-20T09:54:17;100434.14;;;23.81;29.06
72024;BME280;59889;50.700;5.440;2023-05-20T09:56:41;100434.06;;;23.95;29.12
72024;BME280;59889;50.700;5.440;2023-05-20T09:59:06;100433.86;;;23.76;29.43
72024;BME280;59889;50.700;5.440;2023-05-20T10:01:30;100432.20;;;24.13;29.15
72024;BME280;59889;50.700;5.440;2023-05-20T10:03:56;100433.83;;;24.18;29.34
72024;BME280;59889;50.700;5.440;2023-05-20T10:06:32;100430.50;;;23.99;29.86
72024;BME280;59889;50.700;5.440;2023-05-20T10:09:00;100429.18;;;24.08;29.46
72024;BME280;59889;50.700;5.440;2023-05-20T10:11:15;100433.85;;;23.91;29.48
72024;BME280;59889;50.700;5.440;2023-05-20T10:13:55;100427.55;;;23.93;29.35
72024;BME280;59889;50.700;5.440;2023-05-20T10:16:08;100428.09;;;23.79;29.65
72024;BME280;59889;50.700;5.440;2023-05-20T10:18:35;100427.37;;;24.01;29.86
72024;BME280;59889;50.700;5.440;2023-05-20T10:20:52;100413.91;;;23.71;30.02
72024;BME280;59889;50.700;5.440;2023-05-20T10:23:21;100417.73;;;23.99;30.14
72024;BME280;59889;50.700;5.440;2023-05-20T10:25:49;100415.81;;;24.05;30.47
72024;BME280;59889;50.700;5.440;2023-05-20T10:28:09;100417.00;;;23.68;30.54
72024;BME280;59889;50.700;5.440;2023-05-20T10:30:34;100411.26;;;23.78;30.25
72024;BME280;59889;50.700;5.440;2023-05-20T10:33:03;100409.75;;;24.26;30.43
72024;BME280;59889;50.700;5.440;2023-05-20T10:35:25;100407.56;;;24.30;30.55
72024;BME280;59889;50.700;5.440;2023-05-20T10:37:50;100408.91;;;24.01;30.75
72024;BME280;59889;50.700;5.440;2023-05-20T10:40:21;100407.81;;;23.85;30.04
72024;BME280;59889;50.700;5.440;2023-05-20T10:42:41;100406.50;;;24.05;30.15
72024;BME280;59889;50.700;5.440;2023-05-20T10:45:07;100403.43;;;24.07;30.65
72024;BME280;59889;50.700;5.440;2023-05-20T10:47:32;100400.01;;;24.27;30.62
72024;BME280;59889;50.700;5.440;2023-05-20T10:49:57;100399.10;;;24.25;30.70
72024;BME280;59889;50.700;5.440;2023-05-20T10:52:23;100395.30;;;23.93;30.95
72024;BME280;59889;50.700;5.440;2023-05-20T10:54:54;100391.48;;;24.20;30.96
72024;BME280;59889;50.700;5.440;2023-05-20T10:57:13;100398.25;;;23.94;31.05
72024;BME280;59889;50.700;5.440;2023-05-20T10:59:37;100394.76;;;24.57;30.90
72024;BME280;59889;50.700;5.440;2023-05-20T11:02:03;100389.57;;;24.19;31.03
72024;BME280;59889;50.700;5.440;2023-05-20T11:04:28;100386.48;;;24.15;30.77
72024;BME280;59889;50.700;5.440;2023-05-20T11:06:52;100386.60;;;24.20;30.91
72024;BME280;59889;50.700;5.440;2023-05-20T11:09:17;100387.70;;;23.99;30.44
72024;BME280;59889;50.700;5.440;2023-05-20T11:11:43;100385.07;;;24.20;30.46
72024;BME280;59889;50.700;5.440;2023-05-20T11:14:09;100382.32;;;23.98;30.72
72024;BME280;59889;50.700;5.440;2023-05-20T11:16:33;100383.22;;;24.14;30.84
72024;BME280;59889;50.700;5.440;2023-05-20T11:18:58;100377.38;;;24.36;30.61
72024;BME280;59889;50.700;5.440;2023-05-20T11:21:23;100381.31;;;24.16;30.57
72024;BME280;59889;50.700;5.440;2023-05-20T11:23:50;100375.95;;;24.01;30.78
72024;BME280;59889;50.700;5.440;2023-05-20T11:26:13;100373.08;;;24.09;30.75
72024;BME280;59889;50.700;5.440;2023-05-20T11:28:38;100369.35;;;23.85;30.99
72024;BME280;59889;50.700;5.440;2023-05-20T11:31:04;100373.80;;;23.88;30.96
72024;BME280;59889;50.700;5.440;2023-05-20T11:33:28;100374.02;;;23.80;30.99
72024;BME280;59889;50.700;5.440;2023-05-20T11:35:53;100367.33;;;24.00;30.67
72024;BME280;59889;50.700;5.440;2023-05-20T11:38:20;100358.83;;;23.99;30.79
72024;BME280;59889;50.700;5.440;2023-05-20T11:40:45;100352.81;;;23.98;30.74
72024;BME280;59889;50.700;5.440;2023-05-20T11:43:10;100353.65;;;23.89;30.90
72024;BME280;59889;50.700;5.440;2023-05-20T11:45:39;100352.12;;;24.07;30.70
72024;BME280;59889;50.700;5.440;2023-05-20T11:48:00;100349.35;;;24.14;30.62
72024;BME280;59889;50.700;5.440;2023-05-20T11:50:24;100346.97;;;23.92;30.94
72024;BME280;59889;50.700;5.440;2023-05-20T11:52:56;100348.34;;;24.26;30.60
72024;BME280;59889;50.700;5.440;2023-05-20T11:55:14;100344.45;;;24.12;31.02
72024;BME280;59889;50.700;5.440;2023-05-20T11:57:39;100344.08;;;24.15;30.98
72024;BME280;59889;50.700;5.440;2023-05-20T12:00:06;100343.50;;;24.23;30.91
72024;BME280;59889;50.700;5.440;2023-05-20T12:02:29;100342.24;;;24.08;31.04
72024;BME280;59889;50.700;5.440;2023-05-20T12:04:54;100345.22;;;24.44;30.60
72024;BME280;59889;50.700;5.440;2023-05-20T12:07:19;100336.83;;;24.21;30.58
72024;BME280;59889;50.700;5.440;2023-05-20T12:09:44;100334.16;;;24.08;30.96
72024;BME280;59889;50.700;5.440;2023-05-20T12:12:10;100337.01;;;23.72;30.78
72024;BME280;59889;50.700;5.440;2023-05-20T12:14:34;100330.82;;;24.01;30.79
72024;BME280;59889;50.700;5.440;2023-05-20T12:16:59;100328.76;;;24.02;31.01
72024;BME280;59889;50.700;5.440;2023-05-20T12:19:24;100329.10;;;24.30;30.67
72024;BME280;59889;50.700;5.440;2023-05-20T12:21:49;100331.88;;;24.15;30.57
72024;BME280;59889;50.700;5.440;2023-05-20T12:24:14;100326.82;;;24.45;30.50
72024;BME280;59889;50.700;5.440;2023-05-20T12:26:39;100326.29;;;24.35;30.89
72024;BME280;59889;50.700;5.440;2023-05-20T12:29:05;100319.01;;;24.12;30.82
72024;BME280;59889;50.700;5.440;2023-05-20T12:31:30;100318.75;;;24.20;30.73
72024;BME280;59889;50.700;5.440;2023-05-20T12:33:55;100319.57;;;24.32;30.62
72024;BME280;59889;50.700;5.440;2023-05-20T12:36:20;100317.23;;;23.98;30.99
72024;BME280;59889;50.700;5.440;2023-05-20T12:38:45;100314.09;;;23.79;31.06